Market Bosworth, United Kingdom
Current Conditions -  °F | °C
As of 11:50 PM on Friday 19 Dec 2014 (Local Time) from EGNX Reporting Station
Clear Clear  
Wind Chill:   Ceiling: Unl
Heat Index:   Visibility: 6mi
Dew Point:   Wind: 21mph
Humidity: 76%   Direction: 240°WSW
Pressure: 30.09"   Gusts: 32mph
Location:  52.62°N, 1.4°W
Report Text: EGNX 192350Z 24018G28KT CAVOK 06/02 Q1019
Loading
Personal Weather Stations






























Interactive Weather Map New forecast layout! Learn more

10-Day Weather Forecast

Advertisements
Track Severe Weather on mobile